Time,TemperatureF,DewpointF,PressureIn,WindDirection,WindDirectionDegrees,WindSpeedMPH,WindSpeedGustMPH,Humidity,HourlyPrecipIn,Conditions,Clouds,dailyrainin,SoftwareType,DateUTC
2013-09-28 00:00:00,45.4,36.9,29.92,NNW,348,1.0,1.0,72,0.00,,,0.00,Wunderground v.1.15,2013-09-28 06:00:00,
2013-09-28 00:05:00,45.0,36.5,29.92,NNW,348,0.0,1.0,72,0.00,,,0.00,Wunderground v.1.15,2013-09-28 06:05:00,
2013-09-28 00:15:00,44.5,36.4,29.92,NNW,348,0.0,0.0,73,0.00,,,0.00,Wunderground v.1.15,2013-09-28 06:15:00,
2013-09-28 00:20:00,44.1,36.3,29.93,NNW,348,0.0,0.0,74,0.00,,,0.00,Wunderground v.1.15,2013-09-28 06:20:00,
2013-09-28 00:25:00,43.8,36.0,29.93,NNW,348,0.0,0.0,74,0.00,,,0.00,Wunderground v.1.15,2013-09-28 06:25:00,
2013-09-28 00:35:00,43.3,35.6,29.93,NNW,348,0.0,0.0,74,0.00,,,0.00,Wunderground v.1.15,2013-09-28 06:35:00,
2013-09-28 00:45:00,43.0,36.0,29.93,NNW,348,0.0,0.0,76,0.00,,,0.00,Wunderground v.1.15,2013-09-28 06:45:00,
2013-09-28 00:50:00,42.9,35.9,29.93,NNW,348,0.0,0.0,76,0.00,,,0.00,Wunderground v.1.15,2013-09-28 06:50:00,
2013-09-28 00:55:00,42.8,36.1,29.94,NNW,348,0.0,0.0,77,0.00,,,0.00,Wunderground v.1.15,2013-09-28 06:55:00,
2013-09-28 01:00:00,42.6,35.9,29.94,NNW,348,0.0,0.0,77,0.00,,,0.00,Wunderground v.1.15,2013-09-28 07:00:00,
2013-09-28 01:05:00,42.2,35.5,29.94,NNW,348,0.0,0.0,77,0.00,,,0.00,Wunderground v.1.15,2013-09-28 07:05:00,
2013-09-28 01:15:00,42.1,35.7,29.94,NNW,348,0.0,0.0,78,0.00,,,0.00,Wunderground v.1.15,2013-09-28 07:15:00,
2013-09-28 01:20:00,42.1,35.7,29.94,NNW,348,0.0,0.0,78,0.00,,,0.00,Wunderground v.1.15,2013-09-28 07:20:00,
2013-09-28 01:25:00,42.2,35.8,29.94,NNW,346,0.0,0.0,78,0.00,,,0.00,Wunderground v.1.15,2013-09-28 07:25:00,
2013-09-28 01:30:00,42.4,34.4,29.94,NNW,327,0.0,0.0,73,0.00,,,0.00,Wunderground v.1.15,2013-09-28 07:30:00,
2013-09-28 01:40:00,44.4,33.4,29.94,NW,326,0.0,0.0,65,0.00,,,0.00,Wunderground v.1.15,2013-09-28 07:40:00,
2013-09-28 01:45:00,44.4,32.6,29.94,NW,324,0.0,0.0,63,0.00,,,0.00,Wunderground v.1.15,2013-09-28 07:45:00,
2013-09-28 01:55:00,43.8,32.0,29.95,NW,324,0.0,0.0,63,0.00,,,0.00,Wunderground v.1.15,2013-09-28 07:55:00,
2013-09-28 02:00:00,43.4,32.0,29.95,NW,324,0.0,0.0,64,0.00,,,0.00,Wunderground v.1.15,2013-09-28 08:00:00,
2013-09-28 02:05:00,42.9,32.3,29.95,NW,324,0.0,0.0,66,0.00,,,0.00,Wunderground v.1.15,2013-09-28 08:05:00,
2013-09-28 02:15:00,42.3,33.9,29.96,NNW,327,0.0,0.0,72,0.00,,,0.00,Wunderground v.1.15,2013-09-28 08:15:00,
2013-09-28 02:25:00,42.3,33.6,29.96,East,88,1.0,1.0,71,0.00,,,0.00,Wunderground v.1.15,2013-09-28 08:25:00,
2013-09-28 02:30:00,42.3,33.6,29.96,East,88,1.0,1.0,71,0.00,,,0.00,Wunderground v.1.15,2013-09-28 08:30:00,
2013-09-28 02:40:00,42.0,33.6,29.97,ENE,66,0.0,0.0,72,0.00,,,0.00,Wunderground v.1.15,2013-09-28 08:40:00,
2013-09-28 02:50:00,41.8,33.8,29.96,ENE,65,0.0,0.0,73,0.00,,,0.00,Wunderground v.1.15,2013-09-28 08:50:00,
2013-09-28 03:00:00,41.1,33.4,29.96,ENE,65,0.0,0.0,74,0.00,,,0.00,Wunderground v.1.15,2013-09-28 09:00:00,
2013-09-28 03:10:00,40.7,33.4,29.97,ENE,65,0.0,0.0,75,0.00,,,0.00,Wunderground v.1.15,2013-09-28 09:10:00,
2013-09-28 03:15:00,40.5,33.5,29.97,ENE,65,0.0,0.0,76,0.00,,,0.00,Wunderground v.1.15,2013-09-28 09:15:00,
2013-09-28 03:20:00,40.2,33.2,29.97,ENE,65,0.0,0.0,76,0.00,,,0.00,Wunderground v.1.15,2013-09-28 09:20:00,
2013-09-28 03:25:00,39.8,33.2,29.97,ENE,65,0.0,0.0,77,0.00,,,0.00,Wunderground v.1.15,2013-09-28 09:25:00,
2013-09-28 03:35:00,39.6,33.0,29.97,ENE,65,0.0,0.0,77,0.00,,,0.00,Wunderground v.1.15,2013-09-28 09:35:00,
2013-09-28 03:40:00,39.2,32.9,29.98,ENE,65,0.0,0.0,78,0.00,,,0.00,Wunderground v.1.15,2013-09-28 09:40:00,
2013-09-28 03:45:00,39.0,32.7,29.98,ENE,65,0.0,0.0,78,0.00,,,0.00,Wunderground v.1.15,2013-09-28 09:45:00,
2013-09-28 03:50:00,38.9,32.9,29.99,ENE,65,0.0,0.0,79,0.00,,,0.00,Wunderground v.1.15,2013-09-28 09:50:00,
2013-09-28 03:55:00,38.8,32.8,29.98,ENE,65,0.0,0.0,79,0.00,,,0.00,Wunderground v.1.15,2013-09-28 09:55:00,
2013-09-28 04:05:00,38.6,33.0,29.98,ENE,65,0.0,0.0,80,0.00,,,0.00,Wunderground v.1.15,2013-09-28 10:05:00,
2013-09-28 04:15:00,38.9,32.9,29.99,ENE,65,0.0,0.0,79,0.00,,,0.00,Wunderground v.1.15,2013-09-28 10:15:00,
2013-09-28 04:20:00,39.0,33.0,29.99,ENE,65,0.0,0.0,79,0.00,,,0.00,Wunderground v.1.15,2013-09-28 10:20:00,
2013-09-28 04:25:00,38.8,32.8,29.99,ENE,65,0.0,0.0,79,0.00,,,0.00,Wunderground v.1.15,2013-09-28 10:25:00,
2013-09-28 04:30:00,38.8,32.8,29.99,ENE,65,0.0,0.0,79,0.00,,,0.00,Wunderground v.1.15,2013-09-28 10:30:00,
2013-09-28 04:35:00,38.8,32.8,30.00,ENE,65,0.0,0.0,79,0.00,,,0.00,Wunderground v.1.15,2013-09-28 10:35:00,
2013-09-28 04:45:00,38.3,32.4,30.00,ENE,65,0.0,0.0,79,0.00,,,0.00,Wunderground v.1.15,2013-09-28 10:45:00,
2013-09-28 04:50:00,38.2,32.3,30.00,ENE,65,0.0,0.0,79,0.00,,,0.00,Wunderground v.1.15,2013-09-28 10:50:00,
2013-09-28 04:55:00,38.1,32.5,30.01,ENE,65,0.0,0.0,80,0.00,,,0.00,Wunderground v.1.15,2013-09-28 10:55:00,
2013-09-28 05:05:00,38.1,32.2,30.01,ENE,65,0.0,0.0,79,0.00,,,0.00,Wunderground v.1.15,2013-09-28 11:05:00,
2013-09-28 05:15:00,37.7,31.8,30.01,ENE,65,0.0,0.0,79,0.00,,,0.00,Wunderground v.1.15,2013-09-28 11:15:00,
2013-09-28 05:20:00,37.5,31.9,30.01,ENE,65,0.0,0.0,80,0.00,,,0.00,Wunderground v.1.15,2013-09-28 11:20:00,
2013-09-28 05:25:00,37.3,31.7,30.02,ENE,65,0.0,0.0,80,0.00,,,0.00,Wunderground v.1.15,2013-09-28 11:25:00,
2013-09-28 05:30:00,37.1,31.5,30.02,ENE,65,0.0,0.0,80,0.00,,,0.00,Wunderground v.1.15,2013-09-28 11:30:00,
2013-09-28 05:35:00,37.1,31.5,30.03,ENE,65,0.0,0.0,80,0.00,,,0.00,Wunderground v.1.15,2013-09-28 11:35:00,
2013-09-28 05:40:00,37.1,31.5,30.03,ENE,65,0.0,0.0,80,0.00,,,0.00,Wunderground v.1.15,2013-09-28 11:40:00,
2013-09-28 05:50:00,37.0,31.4,30.03,ENE,65,0.0,0.0,80,0.00,,,0.00,Wunderground v.1.15,2013-09-28 11:50:00,
2013-09-28 05:55:00,37.2,31.9,30.03,ENE,70,0.0,0.0,81,0.00,,,0.00,Wunderground v.1.15,2013-09-28 11:55:00,
2013-09-28 06:05:00,37.4,31.5,30.04,ENE,70,0.0,0.0,79,0.00,,,0.00,Wunderground v.1.15,2013-09-28 12:05:00,
2013-09-28 06:20:00,37.9,31.7,30.05,ENE,63,0.0,0.0,78,0.00,,,0.00,Wunderground v.1.15,2013-09-28 12:20:00,
2013-09-28 06:30:00,38.4,31.5,30.06,ENE,63,0.0,0.0,76,0.00,,,0.00,Wunderground v.1.15,2013-09-28 12:30:00,
2013-09-28 06:35:00,38.2,31.3,30.06,ENE,63,0.0,0.0,76,0.00,,,0.00,Wunderground v.1.15,2013-09-28 12:35:00,
2013-09-28 06:40:00,38.1,31.2,30.06,ENE,63,0.0,0.0,76,0.00,,,0.00,Wunderground v.1.15,2013-09-28 12:40:00,
2013-09-28 06:45:00,38.1,31.2,30.06,ENE,63,0.0,0.0,76,0.00,,,0.00,Wunderground v.1.15,2013-09-28 12:45:00,
2013-09-28 06:50:00,38.0,31.1,30.07,ENE,63,0.0,0.0,76,0.00,,,0.00,Wunderground v.1.15,2013-09-28 12:50:00,
2013-09-28 07:00:00,38.1,31.8,30.08,ENE,63,0.0,0.0,78,0.00,,,0.00,Wunderground v.1.15,2013-09-28 13:00:00,
2013-09-28 07:05:00,37.9,32.0,30.08,ENE,63,0.0,0.0,79,0.00,,,0.00,Wunderground v.1.15,2013-09-28 13:05:00,
2013-09-28 07:15:00,36.9,31.6,30.08,ENE,63,0.0,0.0,81,0.00,,,0.00,Wunderground v.1.15,2013-09-28 13:15:00,
2013-09-28 07:25:00,36.5,31.8,30.09,ENE,63,0.0,0.0,83,0.00,,,0.00,Wunderground v.1.15,2013-09-28 13:25:00,
2013-09-28 07:30:00,36.6,32.2,30.09,ENE,63,0.0,0.0,84,0.00,,,0.00,Wunderground v.1.15,2013-09-28 13:30:00,
2013-09-28 07:35:00,36.9,32.5,30.09,ENE,63,0.0,0.0,84,0.00,,,0.00,Wunderground v.1.15,2013-09-28 13:35:00,
2013-09-28 07:40:00,37.1,32.7,30.10,ENE,63,0.0,0.0,84,0.00,,,0.00,Wunderground v.1.15,2013-09-28 13:40:00,
2013-09-28 07:45:00,37.1,32.7,30.10,ENE,63,0.0,0.0,84,0.00,,,0.00,Wunderground v.1.15,2013-09-28 13:45:00,
2013-09-28 07:50:00,37.5,33.1,30.10,ENE,63,0.0,0.0,84,0.00,,,0.00,Wunderground v.1.15,2013-09-28 13:50:00,
2013-09-28 07:55:00,38.1,33.7,30.10,ENE,63,0.0,0.0,84,0.00,,,0.00,Wunderground v.1.15,2013-09-28 13:55:00,
2013-09-28 08:00:00,39.1,34.4,30.10,ENE,63,0.0,0.0,83,0.00,,,0.00,Wunderground v.1.15,2013-09-28 14:00:00,
2013-09-28 08:05:00,40.1,34.7,30.11,ENE,63,0.0,0.0,81,0.00,,,0.00,Wunderground v.1.15,2013-09-28 14:05:00,
2013-09-28 08:15:00,42.2,35.2,30.11,ENE,63,0.0,0.0,76,0.00,,,0.00,Wunderground v.1.15,2013-09-28 14:15:00,
2013-09-28 08:25:00,44.0,34.5,30.12,ENE,63,0.0,0.0,69,0.00,,,0.00,Wunderground v.1.15,2013-09-28 14:25:00,
2013-09-28 08:30:00,44.6,34.7,30.12,ENE,63,0.0,0.0,68,0.00,,,0.00,Wunderground v.1.15,2013-09-28 14:30:00,
2013-09-28 08:35:00,45.2,34.5,30.12,ENE,63,0.0,0.0,66,0.00,,,0.00,Wunderground v.1.15,2013-09-28 14:35:00,
2013-09-28 08:45:00,45.8,33.5,30.12,ENE,69,0.0,2.0,62,0.00,,,0.00,Wunderground v.1.15,2013-09-28 14:45:00,
2013-09-28 08:50:00,46.0,33.3,30.13,ENE,69,0.0,0.0,61,0.00,,,0.00,Wunderground v.1.15,2013-09-28 14:50:00,
2013-09-28 08:55:00,46.4,33.7,30.13,ENE,69,0.0,0.0,61,0.00,,,0.00,Wunderground v.1.15,2013-09-28 14:55:00,
2013-09-28 09:00:00,46.9,33.7,30.13,ENE,68,0.0,0.0,60,0.00,,,0.00,Wunderground v.1.15,2013-09-28 15:00:00,
2013-09-28 09:05:00,47.4,33.8,30.13,ENE,68,0.0,0.0,59,0.00,,,0.00,Wunderground v.1.15,2013-09-28 15:05:00,
2013-09-28 09:15:00,48.1,34.0,30.13,North,351,0.0,0.0,58,0.00,,,0.00,Wunderground v.1.15,2013-09-28 15:15:00,
2013-09-28 09:25:00,49.8,33.8,30.13,NW,319,1.0,2.0,54,0.00,,,0.00,Wunderground v.1.15,2013-09-28 15:25:00,
2013-09-28 09:30:00,50.6,33.1,30.14,North,355,1.0,1.0,51,0.00,,,0.00,Wunderground v.1.15,2013-09-28 15:30:00,
2013-09-28 09:35:00,51.4,34.3,30.13,North,360,0.0,1.0,52,0.00,,,0.00,Wunderground v.1.15,2013-09-28 15:35:00,
2013-09-28 09:40:00,52.0,34.4,30.13,North,355,0.0,1.0,51,0.00,,,0.00,Wunderground v.1.15,2013-09-28 15:40:00,
2013-09-28 09:50:00,53.6,33.8,30.13,North,5,0.0,0.0,47,0.00,,,0.00,Wunderground v.1.15,2013-09-28 15:50:00,
2013-09-28 09:55:00,54.5,33.6,30.14,North,5,0.0,0.0,45,0.00,,,0.00,Wunderground v.1.15,2013-09-28 15:55:00,
2013-09-28 10:00:00,55.3,32.6,30.14,North,5,0.0,1.0,42,0.00,,,0.00,Wunderground v.1.15,2013-09-28 16:00:00,
2013-09-28 10:05:00,56.2,32.8,30.14,North,5,0.0,2.0,41,0.00,,,0.00,Wunderground v.1.15,2013-09-28 16:05:00,
2013-09-28 10:15:00,57.0,31.6,30.14,NNE,17,1.0,1.0,38,0.00,,,0.00,Wunderground v.1.15,2013-09-28 16:15:00,
2013-09-28 10:25:00,57.6,32.2,30.14,NNW,327,1.0,2.0,38,0.00,,,0.00,Wunderground v.1.15,2013-09-28 16:25:00,
2013-09-28 10:30:00,58.1,30.6,30.14,NNE,30,1.0,1.0,35,0.00,,,0.00,Wunderground v.1.15,2013-09-28 16:30:00,
2013-09-28 10:35:00,58.6,31.7,30.14,North,5,1.0,1.0,36,0.00,,,0.00,Wunderground v.1.15,2013-09-28 16:35:00,
2013-09-28 10:40:00,59.0,30.6,30.14,North,9,1.0,1.0,34,0.00,,,0.00,Wunderground v.1.15,2013-09-28 16:40:00,
2013-09-28 10:45:00,59.6,30.4,30.14,North,5,0.0,1.0,33,0.00,,,0.00,Wunderground v.1.15,2013-09-28 16:45:00,
2013-09-28 10:50:00,59.7,31.3,30.14,North,9,1.0,1.0,34,0.00,,,0.00,Wunderground v.1.15,2013-09-28 16:50:00,
2013-09-28 10:55:00,60.3,31.8,30.14,NNE,16,1.0,1.0,34,0.00,,,0.00,Wunderground v.1.15,2013-09-28 16:55:00,
2013-09-28 11:00:00,60.7,29.9,30.14,NNE,13,0.0,0.0,31,0.00,,,0.00,Wunderground v.1.15,2013-09-28 17:00:00,
2013-09-28 11:05:00,61.0,29.3,30.14,North,360,1.0,1.0,30,0.00,,,0.00,Wunderground v.1.15,2013-09-28 17:05:00,
2013-09-28 11:15:00,61.0,27.6,30.14,NNE,26,0.0,0.0,28,0.00,,,0.00,Wunderground v.1.15,2013-09-28 17:15:00,
2013-09-28 11:25:00,61.8,26.5,30.14,WNW,296,0.0,0.0,26,0.00,,,0.00,Wunderground v.1.15,2013-09-28 17:25:00,
2013-09-28 11:35:00,62.7,29.1,30.14,NNW,336,0.0,1.0,28,0.00,,,0.00,Wunderground v.1.15,2013-09-28 17:35:00,
2013-09-28 11:40:00,62.5,28.0,30.14,East,82,0.0,0.0,27,0.00,,,0.00,Wunderground v.1.15,2013-09-28 17:40:00,
2013-09-28 11:45:00,62.4,25.1,30.14,NE,42,1.0,1.0,24,0.00,,,0.00,Wunderground v.1.15,2013-09-28 17:45:00,
2013-09-28 11:50:00,62.9,28.4,30.14,NE,50,0.0,0.0,27,0.00,,,0.00,Wunderground v.1.15,2013-09-28 17:50:00,
2013-09-28 11:55:00,63.0,29.4,30.14,East,84,0.0,0.0,28,0.00,,,0.00,Wunderground v.1.15,2013-09-28 17:55:00,
2013-09-28 12:10:00,63.5,29.8,30.14,SE,126,1.0,1.0,28,0.00,,,0.00,Wunderground v.1.15,2013-09-28 18:10:00,
2013-09-28 12:15:00,64.0,26.4,30.14,ESE,123,1.0,1.0,24,0.00,,,0.00,Wunderground v.1.15,2013-09-28 18:15:00,
2013-09-28 12:25:00,64.5,23.7,30.14,ESE,117,0.0,2.0,21,0.00,,,0.00,Wunderground v.1.15,2013-09-28 18:25:00,
2013-09-28 12:35:00,65.4,28.6,30.13,ESE,119,0.0,0.0,25,0.00,,,0.00,Wunderground v.1.15,2013-09-28 18:35:00,
2013-09-28 12:45:00,65.6,28.8,30.13,SE,134,0.0,2.0,25,0.00,,,0.00,Wunderground v.1.15,2013-09-28 18:45:00,
2013-09-28 12:50:00,66.0,27.1,30.13,NNE,30,0.0,0.0,23,0.00,,,0.00,Wunderground v.1.15,2013-09-28 18:50:00,
2013-09-28 12:55:00,65.7,26.9,30.13,East,98,0.0,0.0,23,0.00,,,0.00,Wunderground v.1.15,2013-09-28 18:55:00,
2013-09-28 13:00:00,66.2,28.3,30.13,East,83,0.0,0.0,24,0.00,,,0.00,Wunderground v.1.15,2013-09-28 19:00:00,
2013-09-28 13:05:00,66.8,26.7,30.13,SE,124,0.0,0.0,22,0.00,,,0.00,Wunderground v.1.15,2013-09-28 19:05:00,
2013-09-28 13:15:00,67.0,24.6,30.12,ESE,121,1.0,4.0,20,0.00,,,0.00,Wunderground v.1.15,2013-09-28 19:15:00,
2013-09-28 13:25:00,66.2,27.3,30.12,SE,129,1.0,1.0,23,0.00,,,0.00,Wunderground v.1.15,2013-09-28 19:25:00,
2013-09-28 13:30:00,66.9,26.8,30.12,SE,132,1.0,2.0,22,0.00,,,0.00,Wunderground v.1.15,2013-09-28 19:30:00,
2013-09-28 13:35:00,67.0,26.9,30.12,ESE,118,1.0,2.0,22,0.00,,,0.00,Wunderground v.1.15,2013-09-28 19:35:00,
2013-09-28 13:40:00,67.1,26.9,30.12,ESE,117,1.0,1.0,22,0.00,,,0.00,Wunderground v.1.15,2013-09-28 19:40:00,
2013-09-28 13:45:00,66.8,26.7,30.12,ESE,115,1.0,1.0,22,0.00,,,0.00,Wunderground v.1.15,2013-09-28 19:45:00,
2013-09-28 13:55:00,66.2,23.9,30.11,WNW,286,1.0,5.0,20,0.00,,,0.00,Wunderground v.1.15,2013-09-28 19:55:00,
2013-09-28 14:05:00,66.7,28.7,30.11,SE,138,0.0,1.0,24,0.00,,,0.00,Wunderground v.1.15,2013-09-28 20:05:00,
2013-09-28 14:15:00,66.9,26.8,30.10,SE,139,0.0,4.0,22,0.00,,,0.00,Wunderground v.1.15,2013-09-28 20:15:00,
2013-09-28 14:20:00,66.6,24.2,30.09,SE,139,0.0,0.0,20,0.00,,,0.00,Wunderground v.1.15,2013-09-28 20:20:00,
2013-09-28 14:30:00,65.5,27.7,30.09,SE,138,0.0,0.0,24,0.00,,,0.00,Wunderground v.1.15,2013-09-28 20:30:00,
2013-09-28 14:35:00,65.9,28.1,30.09,SE,136,0.0,0.0,24,0.00,,,0.00,Wunderground v.1.15,2013-09-28 20:35:00,
2013-09-28 14:40:00,66.7,25.5,30.09,NNE,24,0.0,0.0,21,0.00,,,0.00,Wunderground v.1.15,2013-09-28 20:40:00,
2013-09-28 14:45:00,66.4,25.2,30.09,NNE,26,0.0,0.0,21,0.00,,,0.00,Wunderground v.1.15,2013-09-28 20:45:00,
2013-09-28 14:55:00,66.3,27.4,30.09,ESE,109,0.0,0.0,23,0.00,,,0.00,Wunderground v.1.15,2013-09-28 20:55:00,
2013-09-28 15:05:00,65.9,25.9,30.08,ESE,109,0.0,0.0,22,0.00,,,0.00,Wunderground v.1.15,2013-09-28 21:05:00,
2013-09-28 15:15:00,65.9,22.4,30.08,ESE,105,0.0,0.0,19,0.00,,,0.00,Wunderground v.1.15,2013-09-28 21:15:00,
2013-09-28 15:20:00,66.1,26.1,30.08,ESE,106,0.0,0.0,22,0.00,,,0.00,Wunderground v.1.15,2013-09-28 21:20:00,
2013-09-28 15:25:00,66.2,25.1,30.08,ESE,107,0.0,0.0,21,0.00,,,0.00,Wunderground v.1.15,2013-09-28 21:25:00,
2013-09-28 15:35:00,66.4,24.1,30.07,ESE,107,0.0,0.0,20,0.00,,,0.00,Wunderground v.1.15,2013-09-28 21:35:00,
2013-09-28 15:40:00,66.2,23.9,30.07,ESE,109,0.0,1.0,20,0.00,,,0.00,Wunderground v.1.15,2013-09-28 21:40:00,
2013-09-28 15:45:00,66.1,23.8,30.07,ESE,109,0.0,1.0,20,0.00,,,0.00,Wunderground v.1.15,2013-09-28 21:45:00,
2013-09-28 15:50:00,66.1,23.8,30.07,ESE,109,0.0,0.0,20,0.00,,,0.00,Wunderground v.1.15,2013-09-28 21:50:00,
2013-09-28 16:00:00,66.6,26.5,30.07,ESE,109,0.0,0.0,22,0.00,,,0.00,Wunderground v.1.15,2013-09-28 22:00:00,
2013-09-28 16:05:00,66.7,23.1,30.07,ESE,109,0.0,0.0,19,0.00,,,0.00,Wunderground v.1.15,2013-09-28 22:05:00,
2013-09-28 16:15:00,66.5,26.4,30.07,ESE,111,0.0,0.0,22,0.00,,,0.00,Wunderground v.1.15,2013-09-28 22:15:00,
2013-09-28 16:20:00,66.6,29.6,30.07,ESE,111,0.0,0.0,25,0.00,,,0.00,Wunderground v.1.15,2013-09-28 22:20:00,
2013-09-28 16:25:00,67.1,25.8,30.07,ESE,111,0.0,0.0,21,0.00,,,0.00,Wunderground v.1.15,2013-09-28 22:25:00,
2013-09-28 16:30:00,67.1,23.4,30.07,ESE,111,0.0,0.0,19,0.00,,,0.00,Wunderground v.1.15,2013-09-28 22:30:00,
2013-09-28 16:35:00,66.9,26.8,30.06,ESE,111,0.0,0.0,22,0.00,,,0.00,Wunderground v.1.15,2013-09-28 22:35:00,
2013-09-28 16:40:00,67.0,26.9,30.06,SE,134,0.0,0.0,22,0.00,,,0.00,Wunderground v.1.15,2013-09-28 22:40:00,
2013-09-28 16:45:00,67.0,27.9,30.06,SE,132,0.0,0.0,23,0.00,,,0.00,Wunderground v.1.15,2013-09-28 22:45:00,
2013-09-28 16:55:00,67.0,31.9,30.06,SE,132,0.0,0.0,27,0.00,,,0.00,Wunderground v.1.15,2013-09-28 22:55:00,
2013-09-28 17:00:00,66.5,27.5,30.06,SE,132,0.0,0.0,23,0.00,,,0.00,Wunderground v.1.15,2013-09-28 23:00:00,
2013-09-28 17:05:00,66.3,28.4,30.06,SE,132,0.0,0.0,24,0.00,,,0.00,Wunderground v.1.15,2013-09-28 23:05:00,
2013-09-28 17:15:00,66.3,29.4,30.07,SE,132,0.0,0.0,25,0.00,,,0.00,Wunderground v.1.15,2013-09-28 23:15:00,
2013-09-28 17:20:00,66.1,32.9,30.07,SE,132,0.0,0.0,29,0.00,,,0.00,Wunderground v.1.15,2013-09-28 23:20:00,
2013-09-28 17:25:00,65.5,31.5,30.07,SE,132,0.0,0.0,28,0.00,,,0.00,Wunderground v.1.15,2013-09-28 23:25:00,
2013-09-28 17:30:00,65.4,26.6,30.07,SE,133,0.0,0.0,23,0.00,,,0.00,Wunderground v.1.15,2013-09-28 23:30:00,
2013-09-28 17:35:00,65.6,28.8,30.07,SE,134,0.0,0.0,25,0.00,,,0.00,Wunderground v.1.15,2013-09-28 23:35:00,
2013-09-28 17:40:00,65.8,28.0,30.07,SE,133,0.0,0.0,24,0.00,,,0.00,Wunderground v.1.15,2013-09-28 23:40:00,
2013-09-28 17:50:00,64.7,34.9,30.06,SE,133,0.0,0.0,33,0.00,,,0.00,Wunderground v.1.15,2013-09-28 23:50:00,
2013-09-28 17:55:00,64.0,35.0,30.06,SE,133,0.0,0.0,34,0.00,,,0.00,Wunderground v.1.15,2013-09-28 23:55:00,
2013-09-28 18:00:00,63.5,35.3,30.06,SE,134,0.0,0.0,35,0.00,,,0.00,Wunderground v.1.15,2013-09-29 00:00:00,
2013-09-28 18:05:00,62.9,34.8,30.06,SE,133,0.0,0.0,35,0.00,,,0.00,Wunderground v.1.15,2013-09-29 00:05:00,
2013-09-28 18:15:00,62.3,36.4,30.07,SE,133,0.0,0.0,38,0.00,,,0.00,Wunderground v.1.15,2013-09-29 00:15:00,
2013-09-28 18:20:00,61.4,39.3,30.07,SE,133,0.0,0.0,44,0.00,,,0.00,Wunderground v.1.15,2013-09-29 00:20:00,
2013-09-28 18:25:00,60.5,39.0,30.06,SE,133,0.0,0.0,45,0.00,,,0.00,Wunderground v.1.15,2013-09-29 00:25:00,
2013-09-28 18:30:00,59.6,39.3,30.06,SE,134,0.0,0.0,47,0.00,,,0.00,Wunderground v.1.15,2013-09-29 00:30:00,
2013-09-28 18:35:00,59.1,37.2,30.06,SE,133,0.0,0.0,44,0.00,,,0.00,Wunderground v.1.15,2013-09-29 00:35:00,
2013-09-28 18:40:00,58.8,39.1,30.06,SE,133,0.0,0.0,48,0.00,,,0.00,Wunderground v.1.15,2013-09-29 00:40:00,
2013-09-28 18:50:00,57.2,39.2,30.07,SE,134,0.0,0.0,51,0.00,,,0.00,Wunderground v.1.15,2013-09-29 00:50:00,
2013-09-28 19:00:00,56.4,39.5,30.06,SE,133,0.0,0.0,53,0.00,,,0.00,Wunderground v.1.15,2013-09-29 01:00:00,
2013-09-28 19:05:00,55.5,39.1,30.06,SE,133,0.0,0.0,54,0.00,,,0.00,Wunderground v.1.15,2013-09-29 01:05:00,
2013-09-28 19:15:00,54.7,37.9,30.07,SE,133,0.0,0.0,53,0.00,,,0.00,Wunderground v.1.15,2013-09-29 01:15:00,
2013-09-28 19:20:00,54.6,38.7,30.07,SE,133,0.0,0.0,55,0.00,,,0.00,Wunderground v.1.15,2013-09-29 01:20:00,
2013-09-28 19:25:00,54.5,39.6,30.07,SE,133,0.0,0.0,57,0.00,,,0.00,Wunderground v.1.15,2013-09-29 01:25:00,
2013-09-28 19:35:00,53.9,40.3,30.07,SE,134,0.0,0.0,60,0.00,,,0.00,Wunderground v.1.15,2013-09-29 01:35:00,
2013-09-28 19:40:00,53.4,39.9,30.07,SE,134,0.0,0.0,60,0.00,,,0.00,Wunderground v.1.15,2013-09-29 01:40:00,
2013-09-28 19:50:00,52.8,39.7,30.07,SE,134,0.0,0.0,61,0.00,,,0.00,Wunderground v.1.15,2013-09-29 01:50:00,
2013-09-28 19:55:00,52.5,39.4,30.08,SE,134,0.0,0.0,61,0.00,,,0.00,Wunderground v.1.15,2013-09-29 01:55:00,
2013-09-28 20:00:00,52.4,39.8,30.08,SE,134,0.0,0.0,62,0.00,,,0.00,Wunderground v.1.15,2013-09-29 02:00:00,
2013-09-28 20:05:00,52.3,39.2,30.08,SE,134,0.0,0.0,61,0.00,,,0.00,Wunderground v.1.15,2013-09-29 02:05:00,
2013-09-28 20:15:00,51.5,38.9,30.08,SE,134,0.0,0.0,62,0.00,,,0.00,Wunderground v.1.15,2013-09-29 02:15:00,
2013-09-28 20:20:00,51.6,38.6,30.09,SE,134,0.0,0.0,61,0.00,,,0.00,Wunderground v.1.15,2013-09-29 02:20:00,
2013-09-28 20:25:00,51.5,38.9,30.09,SE,134,0.0,0.0,62,0.00,,,0.00,Wunderground v.1.15,2013-09-29 02:25:00,
2013-09-28 20:30:00,51.0,37.2,30.09,SE,133,0.0,0.0,59,0.00,,,0.00,Wunderground v.1.15,2013-09-29 02:30:00,
2013-09-28 20:40:00,50.5,38.8,30.09,SE,134,0.0,0.0,64,0.00,,,0.00,Wunderground v.1.15,2013-09-29 02:40:00,
2013-09-28 20:50:00,50.3,42.3,30.10,SE,134,0.0,0.0,74,0.00,,,0.00,Wunderground v.1.15,2013-09-29 02:50:00,
2013-09-28 20:55:00,50.0,42.7,30.10,SE,134,0.0,0.0,76,0.00,,,0.00,Wunderground v.1.15,2013-09-29 02:55:00,
2013-09-28 21:00:00,50.0,42.4,30.10,SE,134,0.0,0.0,75,0.00,,,0.00,Wunderground v.1.15,2013-09-29 03:00:00,
2013-09-28 21:05:00,50.0,42.4,30.10,SE,134,0.0,0.0,75,0.00,,,0.00,Wunderground v.1.15,2013-09-29 03:05:00,
2013-09-28 21:15:00,48.9,41.0,30.10,SE,132,0.0,0.0,74,0.00,,,0.00,Wunderground v.1.15,2013-09-29 03:15:00,
2013-09-28 21:20:00,49.0,41.1,30.11,SE,132,0.0,0.0,74,0.00,,,0.00,Wunderground v.1.15,2013-09-29 03:20:00,
2013-09-28 21:25:00,48.7,40.1,30.11,SE,132,0.0,0.0,72,0.00,,,0.00,Wunderground v.1.15,2013-09-29 03:25:00,
2013-09-28 21:30:00,48.5,40.2,30.11,SE,132,0.0,0.0,73,0.00,,,0.00,Wunderground v.1.15,2013-09-29 03:30:00,
2013-09-28 21:40:00,48.0,39.8,30.11,SE,132,0.0,0.0,73,0.00,,,0.00,Wunderground v.1.15,2013-09-29 03:40:00,
2013-09-28 21:45:00,47.7,39.1,30.11,SE,132,0.0,0.0,72,0.00,,,0.00,Wunderground v.1.15,2013-09-29 03:45:00,
2013-09-28 21:50:00,47.4,39.2,30.12,SE,132,0.0,0.0,73,0.00,,,0.00,Wunderground v.1.15,2013-09-29 03:50:00,
2013-09-28 22:00:00,46.7,39.2,30.12,SE,132,0.0,0.0,75,0.00,,,0.00,Wunderground v.1.15,2013-09-29 04:00:00,
2013-09-28 22:05:00,46.5,40.0,30.12,SE,132,0.0,0.0,78,0.00,,,0.00,Wunderground v.1.15,2013-09-29 04:05:00,
2013-09-28 22:15:00,46.8,40.3,30.12,SE,132,0.0,0.0,78,0.00,,,0.00,Wunderground v.1.15,2013-09-29 04:15:00,
2013-09-28 22:25:00,46.3,40.1,30.12,SE,132,0.0,0.0,79,0.00,,,0.00,Wunderground v.1.15,2013-09-29 04:25:00,
2013-09-28 22:30:00,46.1,40.3,30.12,SE,132,0.0,0.0,80,0.00,,,0.00,Wunderground v.1.15,2013-09-29 04:30:00,
2013-09-28 22:35:00,45.9,40.1,30.12,SE,132,0.0,0.0,80,0.00,,,0.00,Wunderground v.1.15,2013-09-29 04:35:00,
2013-09-28 22:45:00,45.6,40.1,30.12,SE,132,0.0,0.0,81,0.00,,,0.00,Wunderground v.1.15,2013-09-29 04:45:00,
2013-09-28 22:50:00,45.5,39.7,30.12,SE,132,0.0,0.0,80,0.00,,,0.00,Wunderground v.1.15,2013-09-29 04:50:00,
2013-09-28 23:00:00,45.3,39.8,30.12,SE,132,0.0,0.0,81,0.00,,,0.00,Wunderground v.1.15,2013-09-29 05:00:00,
2013-09-28 23:05:00,45.4,39.9,30.13,SE,132,0.0,0.0,81,0.00,,,0.00,Wunderground v.1.15,2013-09-29 05:05:00,
2013-09-28 23:15:00,45.0,39.5,30.12,SE,132,0.0,0.0,81,0.00,,,0.00,Wunderground v.1.15,2013-09-29 05:15:00,
2013-09-28 23:20:00,45.1,39.6,30.13,SE,132,0.0,0.0,81,0.00,,,0.00,Wunderground v.1.15,2013-09-29 05:20:00,
2013-09-28 23:30:00,44.9,39.7,30.13,SE,132,0.0,0.0,82,0.00,,,0.00,Wunderground v.1.15,2013-09-29 05:30:00,
2013-09-28 23:40:00,44.5,39.3,30.13,SE,132,0.0,0.0,82,0.00,,,0.00,Wunderground v.1.15,2013-09-29 05:40:00,
2013-09-28 23:45:00,44.3,39.8,30.13,SE,132,0.0,0.0,84,0.00,,,0.00,Wunderground v.1.15,2013-09-29 05:45:00,
2013-09-28 23:50:00,44.3,39.8,30.13,SE,132,0.0,0.0,84,0.00,,,0.00,Wunderground v.1.15,2013-09-29 05:50:00,
2013-09-28 23:55:00,44.1,39.3,30.13,SE,132,0.0,0.0,83,0.00,,,0.00,Wunderground v.1.15,2013-09-29 05:55:00,